This is the latest recevied weather packets stored in our database for station/object BMCB-22. If no packets are shown the sender has not sent any weather packets the latest 10 day(s).
| Time | Temp. | Humidity | Pressure | Rain* | Wind** | Luminosity | Snow |
|---|---|---|---|---|---|---|---|
| 1777949455 | 10° C | 98% | 1011.1 hPa | 0 mm | - | 0 W/m² | - |
| 1777944653 | 10° C | 98% | 1011.5 hPa | 0 mm | - | 0 W/m² | - |
| 1777944055 | 10° C | 98% | 1011.5 hPa | 0 mm | - | 0 W/m² | - |
| 1777940454 | 10° C | 98% | 1011.9 hPa | 0 mm | - | 0 W/m² | - |
| 1777935066 | 10° C | 97% | 1012.6 hPa | 0 mm | - | 0 W/m² | - |
| 1777933267 | 10° C | 97% | 1012.9 hPa | 0 mm | - | 0 W/m² | - |
| 1777932062 | 10° C | 97% | 1013.1 hPa | 0 mm | - | 0 W/m² | - |
| 1777931470 | 10° C | 97% | 1013.1 hPa | 0 mm | - | 0 W/m² | - |
| 1777927270 | 10° C | 97% | 1013.5 hPa | 0 mm | - | 0 W/m² | - |
| 1777924871 | 10° C | 96% | 1013.6 hPa | 0 mm | - | 0 W/m² | - |
| 1777919464 | 10° C | 97% | 1013.4 hPa | 0.51 mm | - | 10 W/m² | - |
| 1777913464 | 10.56° C | 96% | 1013.7 hPa | 0 mm | - | 52 W/m² | - |
| 1777900858 | 11.67° C | 96% | 1014.3 hPa | 2.03 mm | - | 164 W/m² | - |
| 1777893661 | 12.22° C | 93% | 1014.5 hPa | 0.51 mm | - | 134 W/m² | - |
| 1777890059 | 12.78° C | 90% | 1014.6 hPa | 0 mm | - | 154 W/m² | - |
| 1777889456 | 12.78° C | 89% | 1014.5 hPa | 0 mm | - | 166 W/m² | - |
| 1777886461 | 12.78° C | 89% | 1014.5 hPa | 0 mm | - | 218 W/m² | - |
| 1777882259 | 12.78° C | 89% | 1014.3 hPa | 0 mm | - | 212 W/m² | - |
| 1777881659 | 12.78° C | 88% | 1014.2 hPa | 0 mm | - | 254 W/m² | - |
| 1777875656 | 10° C | 93% | 1014.3 hPa | 0 mm | - | 118 W/m² | - |
| 1777870252 | 8.89° C | 94% | 1013.7 hPa | 0 mm | - | 26 W/m² | - |
| 1777863058 | 9.44° C | 93% | 1013.9 hPa | 0 mm | - | 0 W/m² | - |
| 1777862453 | 9.44° C | 93% | 1013.9 hPa | 0 mm | - | 0 W/m² | - |
| 1777860656 | 10° C | 91% | 1013.7 hPa | 0 mm | - | 0 W/m² | - |
| 1777857654 | 10.56° C | 90% | 1013.9 hPa | 0 mm | - | 0 W/m² | - |
* Rain latest hour (hover to see other rain measurements)
** Current wind speed in m/s (hover to see current wind gust speed)